Date,TemperatureHighF,TemperatureAvgF,TemperatureLowF,DewpointHighF,DewpointAvgF,DewpointLowF,HumidityHigh,HumidityAvg,HumidityLow,PressureMaxIn,PressureMinIn,WindSpeedMaxMPH,WindSpeedAvgMPH,GustSpeedMaxMPH,PrecipitationSumIn
2013-1-1,26,6,-3,25,0,-7,98,75,58,29.89,29.60,9,2,0,0.00
2013-1-2,4,-4,-12,-5,-11,-18,83,71,50,30.22,29.84,6,1,0,0.00
2013-1-3,4,-4,-16,-2,-11,-22,80,73,61,30.21,29.82,3,0,0,0.00
2013-1-4,27,19,1,27,19,-4,98,96,81,29.81,29.61,0,0,0,0.00
2013-1-5,27,13,-2,27,7,-6,98,77,51,30.23,29.66,5,0,0,0.00
2013-1-6,24,14,3,21,11,-1,98,88,74,30.14,29.86,4,0,0,0.00
2013-1-7,18,6,-8,13,1,-14,98,79,60,30.38,30.06,4,0,0,0.00
2013-1-8,34,27,14,32,26,14,98,97,89,30.34,30.05,4,1,0,0.00
2013-1-9,33,28,21,33,27,20,98,96,82,30.33,29.80,5,1,0,0.00
2013-1-10,35,30,17,32,26,16,98,86,69,30.60,29.98,8,2,0,0.00
2013-1-11,30,23,14,27,21,14,98,92,77,30.55,30.04,6,1,0,0.00
2013-1-12,34,32,28,34,31,27,98,98,98,30.08,29.99,0,0,0,0.06
2013-1-13,40,37,35,40,37,34,98,98,98,30.02,29.81,5,0,0,0.46
2013-1-14,43,34,26,42,30,21,98,83,53,30.28,29.70,7,2,0,0.27
2013-1-15,26,21,15,22,16,9,98,83,57,30.37,30.21,3,0,0,0.00
2013-1-16,31,22,12,28,19,12,98,87,60,30.20,29.66,6,1,0,0.00
2013-1-17,29,5,-14,28,-7,-25,98,58,32,30.20,29.66,12,2,0,0.00
2013-1-18,8,-5,-22,0,-16,-30,81,58,39,30.28,30.12,7,1,0,0.00
2013-1-19,24,16,5,23,14,1,98,93,83,30.10,29.63,0,0,0,0.00
2013-1-20,33,16,-5,32,12,-12,98,84,64,29.92,29.21,9,2,0,0.00
2013-1-21,7,-5,-16,-9,-14,-22,76,65,45,30.01,29.86,4,0,0,0.00
2013-1-22,6,-5,-14,-6,-13,-22,76,68,56,30.05,29.82,4,1,0,0.00
2013-1-23,-9,-16,-26,-22,-26,-35,68,59,45,30.15,30.04,5,2,0,0.00
2013-1-24,-2,-10,-16,-15,-21,-27,67,58,48,30.31,30.07,12,3,0,0.00
2013-1-25,7,-3,-13,-8,-13,-20,73,62,46,30.31,30.09,5,1,0,0.00
2013-1-26,13,0,-17,1,-8,-24,84,69,52,30.29,30.09,5,1,0,0.00
2013-1-27,14,3,-7,-4,-8,-14,80,60,36,30.49,30.29,5,1,0,0.00
2013-1-28,17,11,4,14,4,-6,97,75,46,30.42,30.02,5,1,0,0.00
2013-1-29,27,19,8,24,17,6,98,92,70,30.18,29.86,5,1,0,0.00
2013-1-30,48,36,24,47,35,24,98,98,98,29.84,29.19,4,1,0,0.60
2013-1-31,46,27,3,46,22,-5,98,82,57,29.46,28.78,11,4,0,1.31
2013-2-1,7,2,-4,-5,-9,-12,69,59,48,30.08,29.47,8,2,0,0.00
2013-2-2,7,-3,-13,-1,-10,-20,80,73,66,30.13,30.00,4,0,0,0.00
2013-2-3,16,6,-10,8,1,-16,91,79,68,30.02,29.76,5,0,0,0.00
2013-2-4,17,6,-6,9,-2,-17,98,71,47,29.88,29.68,6,1,0,0.00
2013-2-5,11,-2,-21,0,-13,-28,84,60,39,29.97,29.86,5,1,0,0.00
2013-2-6,16,6,-5,11,-5,-16,98,64,37,30.35,29.80,7,2,0,0.00
2013-2-7,2,-7,-19,-17,-23,-26,69,47,26,30.57,30.36,5,2,0,0.00
2013-2-8,9,4,-5,8,0,-22,98,86,41,30.43,30.13,13,7,0,0.00
2013-2-9,30,10,-3,29,6,-9,98,85,69,30.36,30.15,8,2,0,0.00
2013-2-10,34,8,-12,9,-5,-19,79,60,18,30.43,30.22,5,1,0,0.00
2013-2-11,40,19,2,30,13,-4,98,78,26,30.22,29.50,4,1,0,0.00
2013-2-12,39,30,24,34,28,21,98,92,71,29.79,29.50,5,2,0,0.00
2013-2-13,36,26,21,25,21,18,98,84,54,29.82,29.75,4,1,0,0.00
2013-2-14,34,27,23,27,22,19,98,81,62,29.91,29.77,4,0,0,0.00
2013-2-15,34,28,17,34,26,13,98,95,76,29.92,29.75,3,0,0,0.01
2013-2-16,29,12,1,13,3,-4,98,70,38,30.01,29.93,0,0,0,0.00
2013-2-17,24,6,-3,1,-4,-9,81,64,36,29.94,29.72,9,2,0,0.00
2013-2-18,27,8,-4,24,-9,-21,99,50,13,30.12,29.84,9,3,0,0.00
2013-2-19,29,19,4,23,6,-7,98,62,28,30.10,29.58,11,2,0,0.00
2013-2-20,28,22,7,26,20,1,98,91,74,29.72,29.52,0,0,0,0.00
2013-2-21,38,21,5,30,14,-1,98,75,49,30.39,29.72,0,0,0,0.02
2013-2-22,33,24,12,24,20,11,98,84,64,30.46,30.23,6,2,0,0.00
2013-2-23,29,26,22,28,25,20,98,97,90,30.23,29.87,5,2,0,0.00
2013-2-24,36,30,28,33,29,27,98,97,80,29.97,29.82,0,0,0,0.01
2013-2-25,36,31,27,35,30,26,98,98,93,30.24,29.97,3,0,0,0.07
2013-2-26,38,31,26,34,30,26,98,95,81,30.33,30.16,7,2,0,0.08
2013-2-27,33,30,29,31,28,23,98,90,70,30.15,29.71,12,7,0,0.00
2013-2-28,32,29,27,32,29,27,98,98,98,29.70,29.60,9,5,0,0.00
2013-3-1,35,30,27,34,29,27,98,97,79,29.83,29.68,6,1,0,0.02
2013-3-2,32,27,22,27,24,21,98,90,68,29.82,29.77,5,1,0,0.00
2013-3-3,38,26,19,28,22,19,98,88,64,29.78,29.68,5,1,0,0.05
2013-3-4,26,18,16,18,16,14,98,92,68,29.73,29.68,9,3,0,0.00
2013-3-6,37,33,30,30,28,24,93,80,74,30.30,30.22,11,6,0,0.00
2013-3-7,29,27,24,27,21,18,98,77,65,30.31,30.25,10,4,0,0.00
2013-3-8,45,30,20,23,20,18,98,69,34,30.39,30.27,5,1,0,0.00
2013-3-9,51,30,13,25,20,13,98,71,23,30.41,30.34,4,0,0,0.00
2013-3-10,42,33,23,30,25,22,98,74,52,30.34,30.07,5,1,0,0.00
2013-3-11,48,39,32,36,31,27,98,75,50,30.08,29.86,5,0,0,0.00
2013-3-12,43,37,33,43,37,32,98,98,98,29.86,29.75,4,0,0,0.84
2013-3-13,41,33,28,33,27,20,98,83,43,29.80,29.72,5,1,0,0.00
2013-3-14,28,17,6,28,9,-1,98,71,47,29.89,29.66,5,1,0,0.00
2013-3-15,25,16,3,22,10,-2,98,79,46,29.89,29.57,9,1,0,0.00
2013-3-16,24,14,5,12,3,-6,88,61,39,29.90,29.76,5,1,0,0.00
2013-3-17,23,10,-3,1,-8,-18,81,49,16,30.33,29.89,7,2,0,0.00
2013-3-18,28,11,-10,0,-7,-16,77,48,21,30.44,30.12,7,2,0,0.00
2013-3-19,23,21,16,23,18,-3,98,90,38,30.11,29.73,8,2,0,0.00
2013-3-20,32,25,21,32,24,20,98,98,98,29.72,29.61,0,0,0,0.01
2013-3-21,34,25,18,33,23,17,98,94,74,29.65,29.59,0,0,0,0.00
2013-3-22,40,26,20,24,20,16,98,81,51,29.72,29.61,4,0,0,0.01
2013-3-23,37,28,20,24,21,19,97,77,53,29.82,29.66,10,3,0,0.00
2013-3-24,29,28,27,22,22,22,81,78,75,29.83,29.81,4,2,0,0.00
2013-3-27,43,38,34,34,30,27,98,76,53,29.97,29.90,4,1,0,0.00
2013-3-28,50,40,33,38,34,30,98,80,49,30.07,29.96,6,1,0,0.00
2013-3-29,47,40,31,33,27,14,83,61,38,30.10,30.04,5,1,0,0.00
2013-3-30,49,35,20,21,14,2,82,46,16,30.16,30.07,7,1,0,0.00
2013-3-31,49,34,23,40,25,17,98,73,34,30.08,29.68,5,1,0,0.27
2013-4-1,44,33,17,39,27,4,98,81,44,29.75,29.45,10,2,0,0.44
2013-4-2,25,19,13,14,8,3,75,61,49,29.83,29.72,8,3,0,0.00
2013-4-3,35,24,17,14,9,5,62,53,39,30.17,29.83,8,3,0,0.00
2013-4-4,43,31,18,34,16,6,98,55,31,30.20,29.88,9,2,0,0.00
2013-4-5,38,31,20,35,24,7,98,75,47,30.04,29.79,6,2,0,0.30
2013-4-6,35,25,13,15,6,-3,68,46,19,30.30,30.05,5,2,0,0.00
2013-4-7,42,34,26,40,25,11,98,73,51,30.23,29.68,4,1,0,0.22
2013-4-8,47,38,34,36,31,28,98,77,49,30.18,29.87,5,1,0,0.01
2013-4-9,50,39,33,41,36,29,98,90,66,30.05,29.85,8,2,0,0.25
2013-4-10,51,41,34,38,29,17,98,67,39,30.06,29.95,6,1,0,0.00
2013-4-11,37,30,22,17,11,7,63,44,29,30.26,30.03,7,3,0,0.00
2013-4-12,29,27,24,28,20,8,98,79,43,30.26,29.79,13,7,0,0.00
2013-4-13,46,35,28,46,34,-34,98,98,98,29.85,29.72,7,2,0,0.54
2013-4-14,44,38,30,40,33,27,98,83,54,30.23,29.84,5,1,0,0.04
2013-4-15,49,38,24,34,30,23,98,74,47,30.37,30.19,8,2,0,0.00
2013-4-16,48,41,34,48,39,31,98,95,69,30.18,29.86,5,1,0,0.79
2013-4-17,54,40,31,51,22,-21,99,54,4,30.41,30.10,6,2,0,0.00
2013-4-18,44,37,30,43,29,13,98,76,40,30.44,29.79,5,1,0,0.14
2013-4-19,61,50,40,59,49,39,98,97,83,29.80,29.39,5,1,0,0.80
2013-4-20,41,36,26,39,30,14,98,80,50,30.27,29.59,7,3,0,0.18
2013-4-21,42,30,20,17,10,1,74,46,18,30.73,30.27,6,1,0,0.00
2013-4-22,53,37,18,23,18,13,98,53,21,30.74,30.52,8,2,0,0.00
2013-4-23,53,42,29,37,24,10,84,54,18,30.52,30.12,8,2,0,0.00
2013-4-24,64,46,31,46,37,30,98,75,40,30.13,29.66,6,1,0,0.00
2013-4-25,52,35,31,47,27,24,85,74,57,30.33,30.27,0,0,0,0.00
2013-4-26,50,38,29,37,31,26,98,78,57,30.50,30.32,6,1,0,0.00
2013-4-27,59,42,27,37,32,27,98,72,35,30.50,30.34,6,1,0,0.00
2013-4-28,67,49,30,42,34,29,98,63,31,30.37,30.16,5,1,0,0.00
2013-4-29,67,51,36,50,41,33,98,71,40,30.20,30.13,6,1,0,0.00
2013-4-30,67,54,47,54,50,47,98,87,60,30.34,30.19,5,1,0,0.00
2013-5-1,77,60,40,52,46,40,98,67,32,30.48,30.34,9,1,0,0.00
2013-5-2,76,61,45,54,48,44,98,66,35,30.51,30.43,7,2,0,0.00
2013-5-3,69,58,48,46,38,30,72,51,24,30.54,30.40,9,3,0,0.00
2013-5-4,77,60,40,46,37,28,98,53,17,30.41,30.26,7,1,0,0.00
2013-5-5,81,62,41,81,37,-7,99,53,3,30.28,30.15,5,1,0,0.00
2013-5-6,82,64,45,48,38,-17,98,50,2,30.20,30.08,7,1,0,0.00
2013-5-7,84,66,46,84,49,-17,99,64,2,30.15,30.07,5,1,0,0.00
2013-5-8,82,66,46,79,44,30,99,53,18,30.18,30.05,6,1,0,0.00
2013-5-9,76,63,58,62,58,53,98,86,45,30.07,29.91,7,1,0,0.01
2013-5-10,64,55,46,58,46,39,98,75,49,30.07,29.84,8,2,0,0.33
2013-5-11,56,50,47,56,49,46,98,98,98,29.83,29.62,5,0,0,0.35
2013-5-12,53,45,34,47,40,30,98,86,45,29.71,29.61,9,2,0,0.13
2013-5-13,46,38,32,39,33,27,98,84,58,30.05,29.65,7,2,0,0.13
2013-5-14,58,43,28,34,26,16,98,58,20,30.13,30.01,5,1,0,0.00
2013-5-15,57,45,32,48,38,26,98,79,34,30.04,29.56,7,1,0,0.07
2013-5-16,54,47,42,50,44,39,98,87,68,29.95,29.58,6,1,0,0.01
2013-5-17,68,54,41,48,41,28,98,68,23,30.27,29.95,6,1,0,0.00
2013-5-18,70,56,40,49,39,30,98,61,24,30.35,30.27,6,1,0,0.00
2013-5-19,63,53,42,58,48,41,98,85,60,30.32,30.07,4,1,0,0.06
2013-5-20,70,61,55,60,55,49,98,81,47,30.07,30.00,4,1,0,0.18
2013-5-21,62,56,53,57,53,49,98,91,64,30.07,29.87,5,2,0,0.34
2013-5-22,65,57,52,61,56,52,98,96,81,29.90,29.70,4,1,0,0.26
2013-5-23,67,61,48,66,61,47,98,98,98,29.85,29.70,7,0,0,0.71
2013-5-24,51,45,40,47,39,35,98,81,53,30.14,29.85,7,2,0,0.27
2013-5-25,51,47,43,43,33,28,98,60,42,30.16,30.08,8,4,0,0.00
2013-5-26,58,47,40,43,38,29,98,77,33,30.10,30.00,6,2,0,0.18
2013-5-27,67,54,42,42,30,18,98,46,17,30.21,30.09,5,1,0,0.00
2013-5-28,69,56,38,46,38,29,98,57,23,30.25,30.11,4,0,0,0.00
2013-5-29,60,56,54,59,53,43,98,90,58,30.11,29.91,3,0,0,0.42
2013-5-30,77,66,57,66,61,57,98,86,58,30.12,29.97,4,0,0,0.01
2013-5-31,85,74,63,76,66,62,98,80,57,30.08,29.92,4,1,0,0.06
2013-6-1,79,71,66,72,67,62,98,88,69,29.96,29.79,5,1,0,0.05
2013-6-2,72,66,59,72,66,58,98,98,92,29.81,29.62,4,1,0,0.74
2013-6-3,60,56,52,58,50,44,98,83,56,29.88,29.75,4,1,0,0.00
2013-6-4,60,52,44,47,42,39,87,70,51,30.18,29.85,6,2,0,0.00
2013-6-5,64,52,39,44,39,34,98,65,35,30.29,30.18,5,0,0,0.00
2013-6-6,50,49,48,41,40,39,77,74,69,30.24,30.22,0,0,0,0.00
2013-6-10,76,69,63,56,50,42,79,52,34,30.16,30.01,5,1,0,0.00
2013-6-11,62,55,53,61,55,52,98,98,82,30.01,29.74,7,3,0,1.45
2013-6-12,72,58,52,64,55,51,98,92,60,29.92,29.82,4,0,0,0.33
2013-6-13,71,60,48,59,51,46,98,77,44,30.07,29.77,5,1,0,0.01
2013-6-14,77,64,54,56,48,28,98,62,23,29.94,29.77,6,1,0,0.00
2013-6-15,72,61,47,50,45,40,98,60,32,30.00,29.89,5,1,0,0.00
2013-6-16,58,54,50,54,52,47,98,94,70,29.92,29.77,2,0,0,0.39
2013-6-17,60,55,47,58,53,47,98,93,74,30.00,29.77,4,1,0,0.02
2013-6-18,68,55,44,53,44,35,98,70,40,30.09,29.98,5,1,0,0.00
2013-6-19,68,55,40,50,42,38,98,65,36,30.22,30.09,4,0,0,0.00
2013-6-20,74,60,45,54,47,43,98,69,36,30.29,30.22,5,1,0,0.00
2013-6-21,80,65,54,64,56,50,98,74,42,30.31,30.24,4,0,0,0.00
2013-6-22,63,61,60,62,61,59,98,98,98,30.26,30.15,2,0,0,0.66
2013-6-23,71,66,61,70,65,60,98,98,98,30.17,30.01,1,0,0,0.02
2013-6-24,82,71,65,77,69,63,98,94,61,30.02,29.89,3,0,0,0.01
2013-6-25,81,72,67,78,69,66,98,92,63,29.91,29.76,3,0,0,0.00
2013-6-26,73,66,61,71,65,60,98,98,92,29.84,29.77,4,0,0,0.00
2013-6-27,78,67,57,69,63,57,98,89,50,29.87,29.81,4,1,0,0.00
2013-6-28,57,56,55,57,55,54,98,98,98,29.86,29.52,5,2,0,1.91
2013-6-29,68,61,55,67,60,55,98,98,90,29.71,29.53,4,0,0,0.14
2013-6-30,69,63,57,63,59,57,98,90,71,30.11,29.71,3,0,0,0.00
2013-7-1,73,64,56,59,54,46,98,73,45,30.22,30.04,3,0,0,0.00
2013-7-2,66,62,60,62,53,43,98,75,51,30.24,30.19,5,2,0,0.00
2013-7-3,76,67,60,71,64,60,98,91,70,30.23,30.18,3,0,0,0.00
2013-7-4,84,71,61,76,68,60,98,90,61,30.23,30.10,4,0,0,0.61
2013-7-5,80,72,68,77,71,67,98,96,74,30.17,30.08,3,0,0,0.01
2013-7-6,83,74,68,72,68,66,98,85,57,30.12,30.02,6,1,0,0.00
2013-7-7,82,72,66,72,68,65,98,87,61,30.05,29.99,3,0,0,0.04
2013-7-8,75,68,62,66,61,55,98,81,56,30.14,30.03,3,0,0,0.00
2013-7-9,82,71,61,72,64,60,98,80,57,30.16,30.01,4,0,0,0.00
2013-7-10,74,70,67,74,70,66,98,98,98,30.01,29.67,4,1,0,1.12
2013-7-11,73,66,56,66,59,55,98,81,57,30.14,29.74,5,1,0,0.00
2013-7-12,76,61,51,59,53,51,98,79,43,30.30,30.14,4,0,0,0.00
2013-7-13,86,68,53,70,59,52,98,76,38,30.38,30.30,4,0,0,0.00
2013-7-14,89,73,61,73,63,56,98,76,37,30.39,30.28,3,0,0,0.00
2013-7-15,89,76,65,72,65,59,98,72,44,30.29,30.24,4,0,0,0.00
2013-7-16,88,76,66,75,67,64,98,77,47,30.33,30.24,3,0,0,0.00
2013-7-17,90,79,70,79,72,70,98,83,54,30.24,30.02,4,1,0,0.00
2013-7-29,56,56,56,55,55,55,98,98,98,30.12,30.11,0,0,0,0.00
2013-7-30,73,62,54,62,57,53,98,86,58,30.17,30.11,4,0,0,0.00
2013-7-31,79,66,57,63,60,57,98,81,52,30.16,30.05,3,0,0,0.00
2013-8-1,72,64,59,69,63,59,98,96,77,30.06,29.80,3,0,0,0.72
2013-8-2,73,63,59,67,61,58,98,95,63,29.84,29.80,4,0,0,0.04
2013-8-3,70,62,56,63,59,56,98,90,70,29.87,29.78,3,0,0,0.00
2013-8-4,66,58,52,62,56,49,98,91,68,30.01,29.84,5,1,0,0.00
2013-8-5,71,58,47,57,48,43,98,74,43,30.09,30.00,5,1,0,0.00
2013-8-6,73,62,52,64,56,52,98,83,50,30.16,30.08,5,0,0,0.00
2013-8-7,75,64,52,69,60,52,98,88,61,30.15,29.97,5,0,0,0.20
2013-8-8,79,69,63,71,65,63,98,90,62,30.03,29.94,4,0,0,0.83
2013-8-9,78,68,61,69,64,61,98,89,62,30.01,29.81,2,0,0,0.00
2013-8-10,70,61,54,61,52,48,98,75,49,30.07,29.81,6,1,0,0.00
2013-8-11,74,63,52,60,55,51,98,78,51,30.09,30.01,4,1,0,0.00
2013-8-12,76,64,56,62,58,27,99,84,26,30.03,29.92,4,0,0,0.46
2013-8-13,68,62,57,67,59,-29,99,94,2,29.91,29.72,5,0,0,1.31
2013-8-14,63,57,51,57,53,48,99,90,70,29.99,29.72,6,1,0,0.35
2013-8-15,71,59,49,61,54,48,98,86,59,30.10,29.98,4,1,0,0.04
2013-8-16,75,61,52,60,54,50,98,81,48,30.30,30.08,3,0,0,0.00
2013-8-17,80,60,46,57,52,46,98,78,37,30.39,30.30,3,0,0,0.00
2013-8-18,83,65,52,62,57,52,98,77,43,30.33,30.10,4,1,0,0.00
2013-8-19,80,65,58,64,59,56,93,81,55,30.10,30.01,3,0,0,0.00
2013-8-20,86,70,60,66,62,58,98,78,49,30.11,30.02,4,0,0,0.00
2013-8-21,88,72,62,70,66,61,98,82,50,30.15,29.99,4,0,0,0.00
2013-8-22,69,66,59,68,65,59,98,96,89,30.00,29.86,4,0,0,0.85
2013-8-23,76,60,52,59,53,49,98,80,42,30.28,29.97,4,1,0,0.00
2013-8-24,82,59,46,56,51,46,98,78,33,30.41,30.28,3,0,0,0.00
2013-8-25,79,62,50,61,56,50,98,83,51,30.41,30.12,4,1,0,0.53
2013-8-26,70,65,59,69,64,58,98,96,88,30.11,29.94,0,0,0,0.14
2013-8-27,81,69,64,71,66,64,98,92,68,29.98,29.93,4,0,0,0.00
2013-8-28,84,70,62,72,67,62,98,93,63,30.10,29.94,3,0,0,0.29
2013-8-29,62,62,61,62,61,60,98,98,98,30.09,30.08,3,0,0,0.00
2013-8-30,61,61,61,60,60,60,98,98,98,30.08,30.08,3,3,0,0.00
2013-8-31,68,64,61,68,64,60,98,98,91,30.08,29.84,3,1,0,0.00
2013-9-1,73,65,58,64,61,58,98,87,67,29.98,29.89,3,0,0,0.00
2013-9-2,64,61,58,64,60,57,98,97,84,29.92,29.71,3,0,0,0.43
2013-9-3,66,61,57,63,59,56,98,96,84,29.81,29.72,5,1,0,0.19
2013-9-4,61,56,49,58,52,44,98,89,66,29.98,29.81,4,0,0,0.07
2013-9-5,58,50,41,48,41,36,98,73,49,30.22,29.97,5,1,0,0.01
2013-9-6,66,52,40,50,44,39,98,78,47,30.26,30.02,4,1,0,0.00
2013-9-7,64,59,55,59,55,50,98,88,77,30.02,29.85,4,1,0,0.00
2013-9-8,60,52,42,58,42,38,98,72,49,30.13,29.86,5,2,0,0.00
2013-9-9,66,52,39,55,47,39,98,83,59,30.18,30.05,5,0,0,0.00
2013-9-10,58,56,52,58,55,48,98,97,82,30.07,29.98,0,0,0,0.38
2013-9-11,74,66,58,74,66,58,98,98,90,30.01,29.95,3,0,0,0.02
2013-9-12,70,64,59,70,63,58,98,97,89,29.96,29.67,2,0,0,0.43
2013-9-13,59,52,49,58,51,47,98,96,89,29.95,29.70,5,1,0,0.18
2013-9-14,57,50,43,51,47,43,98,91,78,30.08,29.93,2,0,0,0.05
2013-9-15,62,52,41,56,49,41,98,92,77,30.09,30.01,4,0,0,0.00
2013-9-16,54,46,40,53,40,35,98,82,53,30.40,30.01,5,1,0,0.12
2013-9-17,62,48,36,48,41,36,98,80,48,30.51,30.32,3,0,0,0.05
2013-9-18,68,54,44,51,46,43,98,78,45,30.32,30.15,4,0,0,0.00
2013-9-19,74,58,45,58,52,44,98,83,48,30.17,30.08,3,0,0,0.00
2013-9-20,75,63,52,61,57,52,98,84,56,30.10,29.88,6,1,0,0.00
2013-9-21,63,60,58,61,58,56,98,94,85,29.88,29.60,3,0,0,1.68
2013-9-22,58,50,42,57,47,39,98,90,73,29.95,29.57,7,2,0,0.40
2013-9-23,51,45,38,42,39,36,98,79,66,30.12,29.95,6,1,0,0.00
2013-9-24,64,50,40,46,41,38,98,72,45,30.10,29.95,5,1,0,0.00
2013-9-25,66,55,42,52,48,41,98,80,58,30.09,29.99,4,0,0,0.00
2013-9-26,62,50,40,53,46,40,98,87,62,30.26,30.10,3,0,0,0.00
2013-9-27,66,53,43,54,49,42,98,87,59,30.36,30.26,3,0,0,0.00
2013-9-28,74,56,44,56,50,44,98,83,48,30.43,30.28,4,0,0,0.00
2013-9-29,71,55,43,56,49,43,98,83,51,30.29,30.10,6,1,0,0.00
2013-9-30,72,57,46,57,52,45,98,84,52,30.12,30.03,5,0,0,0.00
2013-10-1,73,60,51,62,56,51,98,86,62,30.04,29.88,4,0,0,0.00
2013-10-2,76,63,56,61,49,39,98,66,29,30.01,29.83,6,1,0,0.00
2013-10-3,71,57,45,50,46,42,98,69,36,30.16,30.01,3,0,0,0.00
2013-10-4,60,56,51,49,47,44,92,72,57,30.20,30.11,3,0,0,0.00
2013-10-5,63,54,49,49,43,38,94,67,39,30.25,30.16,4,0,0,0.00
2013-10-6,55,49,43,51,40,34,98,75,45,30.25,29.93,10,3,0,0.81
2013-10-7,64,54,46,63,54,46,98,98,98,29.93,29.57,5,2,0,0.05
2013-10-8,57,47,39,44,40,37,98,80,50,30.42,29.82,9,1,0,0.00
2013-10-9,64,47,34,48,40,34,98,80,37,30.50,30.36,4,0,0,0.00
2013-10-10,74,52,38,49,44,38,98,77,35,30.36,30.25,3,0,0,0.00
2013-10-11,76,55,40,52,47,39,98,79,40,30.26,30.21,4,0,0,0.00
2013-10-12,69,56,46,55,50,46,98,84,52,30.37,30.26,5,1,0,0.00
2013-10-13,66,55,47,55,51,46,98,89,62,30.42,30.31,5,1,0,0.00
2013-10-14,67,56,47,61,53,47,98,91,61,30.34,30.25,4,0,0,0.19
2013-10-15,57,50,41,51,47,40,98,93,77,30.35,30.11,5,1,0,0.00
2013-10-16,58,54,50,58,54,50,98,98,98,30.10,29.77,4,0,0,0.14
2013-10-17,57,53,48,55,51,48,98,94,81,29.82,29.73,4,1,0,0.30
2013-10-18,56,49,42,53,47,42,98,96,69,29.84,29.67,5,0,0,0.30
2013-10-19,52,46,38,51,45,37,98,97,86,29.89,29.60,3,0,0,0.07
2013-10-20,49,43,36,47,39,33,98,85,64,29.99,29.54,6,2,0,0.31
2013-10-21,45,39,30,44,38,30,98,97,85,30.04,29.81,3,0,0,0.02
2013-10-22,50,44,36,46,39,29,98,84,54,29.80,29.65,6,2,0,0.33
2013-10-23,46,36,29,35,30,26,98,80,54,29.71,29.63,8,1,0,0.00
2013-10-24,40,33,28,36,29,22,98,85,72,29.85,29.64,5,1,0,0.01
2013-10-25,41,34,30,32,29,26,98,80,61,30.09,29.85,6,1,0,0.00
2013-10-28,27,27,26,23,22,22,84,83,82,30.41,30.40,0,0,0,0.00
2013-10-29,38,29,22,24,22,20,98,77,50,30.48,30.33,5,1,0,0.00
2013-10-30,42,31,24,29,25,20,98,79,51,30.32,30.16,5,1,0,0.00
2013-10-31,54,38,27,54,38,26,98,98,93,30.18,29.51,4,0,0,1.30
2013-11-1,58,53,45,58,52,45,98,97,79,29.51,29.09,9,4,0,1.75
2013-11-3,36,30,22,19,15,12,86,56,37,30.55,30.26,5,1,0,0.00
2013-11-4,37,28,20,22,17,14,98,66,39,30.74,30.56,5,1,0,0.00
2013-11-5,46,35,28,32,24,17,83,64,43,30.64,30.38,6,0,0,0.00
2013-11-6,54,44,34,49,39,31,98,86,60,30.38,29.70,6,1,0,0.07
2013-11-7,52,41,32,51,36,25,98,83,64,29.85,29.62,7,2,0,0.30
2013-11-8,36,32,29,27,26,24,90,77,68,30.07,29.80,7,2,0,0.00
2013-11-9,36,32,29,30,24,22,98,74,58,30.16,29.89,5,1,0,0.00
2013-11-10,36,33,30,35,32,30,98,98,92,29.88,29.66,5,0,0,0.08
2013-11-11,33,29,20,32,27,16,98,91,75,30.05,29.75,6,1,0,0.01
2013-11-12,29,21,16,19,15,12,90,77,62,30.24,29.94,8,2,0,0.00
2013-11-13,28,21,11,23,15,8,98,79,57,30.27,29.90,6,2,0,0.00
2013-11-14,36,32,28,31,27,23,98,81,71,29.97,29.86,5,2,0,0.05
2013-11-15,42,36,29,34,32,29,98,86,69,30.14,29.95,3,0,0,0.20
2013-11-16,51,38,30,37,33,29,98,85,53,30.27,30.13,4,0,0,0.00
2013-11-17,51,39,28,50,38,28,98,97,83,30.23,29.57,5,1,0,0.54
2013-11-18,52,42,29,52,40,22,98,91,71,29.58,29.26,8,4,0,0.54
2013-11-19,29,26,23,24,18,13,90,70,62,30.38,29.58,9,3,0,0.00
2013-11-20,33,24,17,20,16,13,98,73,49,30.64,30.39,4,0,0,0.00
2013-11-21,35,26,16,25,20,15,98,79,43,30.63,30.34,3,0,0,0.00
2013-11-22,35,32,29,35,30,23,98,94,75,30.34,29.78,4,0,0,0.00
2013-11-23,29,21,14,28,18,8,98,89,77,29.96,29.80,8,2,0,0.00
2013-11-24,17,10,4,10,3,-3,89,72,51,30.20,29.85,8,3,0,0.00
2013-11-25,24,11,1,23,6,-3,98,79,57,30.31,30.02,6,1,0,0.00
2013-11-26,31,29,24,30,28,23,98,97,89,30.15,29.95,4,0,0,0.00
2013-11-27,34,28,18,34,27,15,98,97,85,29.95,29.39,7,1,0,0.00
2013-11-28,17,13,6,14,7,2,91,79,66,30.39,29.50,8,2,0,0.00
2013-11-29,22,8,-4,10,2,-9,96,80,50,30.74,30.39,4,0,0,0.00
2013-11-30,16,4,-11,12,0,-16,98,86,76,30.76,30.25,4,0,0,0.00
2013-12-1,27,22,11,25,21,10,98,97,85,30.24,30.07,3,0,0,0.00
2013-12-2,29,27,25,29,26,24,98,98,98,30.07,29.91,4,1,0,0.00
2013-12-3,33,29,26,33,28,26,98,98,96,30.01,29.91,0,0,0,0.00
2013-12-4,35,27,16,33,25,16,98,94,71,30.17,30.01,4,0,0,0.00
2013-12-5,43,32,26,43,31,26,98,98,96,30.14,29.73,6,2,0,0.35
2013-12-6,35,34,32,34,31,30,97,90,86,29.91,29.85,4,1,0,0.01
2013-12-7,32,11,9,6,6,5,86,79,75,30.43,29.91,0,0,0,0.00
2013-12-8,23,12,0,10,6,-4,98,78,49,30.55,30.43,4,0,0,0.00
2013-12-9,28,20,13,28,18,9,98,93,71,30.44,29.72,6,2,0,0.00
2013-12-10,27,18,9,27,11,0,98,75,44,29.85,29.71,7,2,0,0.00
2013-12-11,18,10,-3,13,6,-10,98,86,63,30.14,29.85,5,1,0,0.00
2013-12-12,11,-2,-18,6,-9,-24,98,74,48,30.22,29.79,5,0,0,0.00
2013-12-13,8,4,0,6,-4,-14,98,70,43,30.41,29.77,6,2,0,0.00
2013-12-14,2,-13,-27,-8,-22,-35,81,64,50,30.59,30.14,7,2,0,0.00
2013-12-15,12,5,-3,9,2,-7,98,89,81,30.12,29.56,8,2,0,0.00
2013-12-16,3,-5,-12,-1,-10,-18,88,77,66,30.17,29.63,4,0,0,0.00
2013-12-17,1,-11,-26,-6,-17,-34,82,73,64,30.18,29.97,5,1,0,0.00
2013-12-18,23,8,-6,21,5,-10,98,89,73,29.97,29.87,2,0,0,0.00
2013-12-19,27,20,12,26,19,12,98,98,91,30.06,29.82,2,0,0,0.00
2013-12-20,24,20,15,23,19,15,98,98,91,30.06,29.91,5,2,0,0.00
2013-12-21,20,18,15,20,17,15,98,98,90,30.06,29.82,5,2,0,0.00
2013-12-22,18,15,13,17,15,13,98,98,98,30.05,29.78,8,1,0,0.00
2013-12-23,22,16,9,21,15,7,98,97,88,30.16,29.97,0,0,0,0.00
2013-12-24,13,3,-4,7,-2,-9,92,81,66,30.30,30.14,0,0,0,0.00
2013-12-25,13,-4,-14,3,-10,-20,83,75,58,30.49,30.31,0,0,0,0.00
2013-12-26,20,9,0,16,6,-4,98,89,76,30.30,30.05,0,0,0,0.00
2013-12-27,27,15,6,22,13,6,98,93,70,30.15,30.03,0,0,0,0.00
2013-12-28,31,27,10,31,26,10,98,98,98,30.02,29.86,0,0,0,0.00
2013-12-29,31,17,11,30,17,10,98,98,98,29.95,29.55,0,0,0,0.00
2013-12-30,16,0,-16,16,-5,-22,98,78,58,30.17,29.55,0,0,0,0.00
2013-12-31,-1,-6,-12,-7,-12,-18,87,78,70,30.15,29.94,0,0,0,0.00
2014-1-1,0,-11,-24,-11,-19,-32,86,68,49,30.45,30.05,0,0,0,0.00
2014-1-2,-10,-18,-28,-22,-29,-36,67,56,45,30.45,30.11,0,0,0,0.00